<?xml version="1.0" encoding="UTF-8" standalone="no" ?>
<gpx xmlns="http://www.topografix.com/GPX/1/1" xmlns:xsi="http://www.w3.org/2001/XMLSchema-instance" xsi:schemaLocation="http://www.topografix.com/GPX/1/1 http://www.topografix.com/GPX/1/1/gpx.xsd" version="1.1" creator="VisuGPX - https://www.visugpx.com">
  <metadata>
    <name>Sortie Moto</name>
  </metadata>
  <trk>
    <name><![CDATA[Journal actif: 2020-04-25 15:17]]></name>
    <trkseg>
      <trkpt lat="46.06762" lon="6.30795">
        <ele>594.71</ele>
        <time>2020-04-25T13:17:27Z</time>
      </trkpt>
      <trkpt lat="46.0677" lon="6.30789">
        <ele>591.83</ele>
        <time>2020-04-25T13:17:28Z</time>
      </trkpt>
      <trkpt lat="46.06794" lon="6.3077">
        <ele>585.1</ele>
        <time>2020-04-25T13:17:37Z</time>
      </trkpt>
      <trkpt lat="46.06797" lon="6.30753">
        <ele>585.58</ele>
        <time>2020-04-25T13:17:38Z</time>
      </trkpt>
      <trkpt lat="46.06793" lon="6.30734">
        <ele>586.06</ele>
        <time>2020-04-25T13:17:40Z</time>
      </trkpt>
      <trkpt lat="46.0679" lon="6.30721">
        <ele>586.54</ele>
        <time>2020-04-25T13:17:41Z</time>
      </trkpt>
      <trkpt lat="46.06786" lon="6.30705">
        <ele>586.54</ele>
        <time>2020-04-25T13:17:42Z</time>
      </trkpt>
      <trkpt lat="46.06784" lon="6.30607">
        <ele>585.58</ele>
        <time>2020-04-25T13:17:47Z</time>
      </trkpt>
      <trkpt lat="46.06788" lon="6.30587">
        <ele>584.62</ele>
        <time>2020-04-25T13:17:48Z</time>
      </trkpt>
      <trkpt lat="46.06793" lon="6.30569">
        <ele>584.14</ele>
        <time>2020-04-25T13:17:49Z</time>
      </trkpt>
      <trkpt lat="46.06798" lon="6.30552">
        <ele>585.1</ele>
        <time>2020-04-25T13:17:50Z</time>
      </trkpt>
      <trkpt lat="46.06804" lon="6.30536">
        <ele>585.1</ele>
        <time>2020-04-25T13:17:51Z</time>
      </trkpt>
      <trkpt lat="46.06829" lon="6.30463">
        <ele>584.62</ele>
        <time>2020-04-25T13:17:57Z</time>
      </trkpt>
      <trkpt lat="46.06853" lon="6.30397">
        <ele>586.06</ele>
        <time>2020-04-25T13:18:01Z</time>
      </trkpt>
      <trkpt lat="46.06857" lon="6.3038">
        <ele>586.54</ele>
        <time>2020-04-25T13:18:02Z</time>
      </trkpt>
      <trkpt lat="46.06859" lon="6.30344">
        <ele>587.98</ele>
        <time>2020-04-25T13:18:04Z</time>
      </trkpt>
      <trkpt lat="46.06861" lon="6.30266">
        <ele>592.31</ele>
        <time>2020-04-25T13:18:09Z</time>
      </trkpt>
      <trkpt lat="46.06863" lon="6.30254">
        <ele>592.31</ele>
        <time>2020-04-25T13:18:10Z</time>
      </trkpt>
      <trkpt lat="46.06866" lon="6.30241">
        <ele>592.79</ele>
        <time>2020-04-25T13:18:11Z</time>
      </trkpt>
      <trkpt lat="46.06885" lon="6.30233">
        <ele>593.27</ele>
        <time>2020-04-25T13:18:12Z</time>
      </trkpt>
      <trkpt lat="46.06889" lon="6.30231">
        <ele>593.27</ele>
        <time>2020-04-25T13:18:13Z</time>
      </trkpt>
      <trkpt lat="46.06903" lon="6.30224">
        <ele>594.23</ele>
        <time>2020-04-25T13:18:14Z</time>
      </trkpt>
      <trkpt lat="46.07008" lon="6.30129">
        <ele>591.35</ele>
        <time>2020-04-25T13:18:22Z</time>
      </trkpt>
      <trkpt lat="46.07038" lon="6.30085">
        <ele>590.39</ele>
        <time>2020-04-25T13:18:25Z</time>
      </trkpt>
      <trkpt lat="46.07046" lon="6.30073">
        <ele>590.87</ele>
        <time>2020-04-25T13:18:26Z</time>
      </trkpt>
      <trkpt lat="46.07053" lon="6.30064">
        <ele>591.35</ele>
        <time>2020-04-25T13:18:27Z</time>
      </trkpt>
      <trkpt lat="46.07059" lon="6.30058">
        <ele>591.35</ele>
        <time>2020-04-25T13:18:28Z</time>
      </trkpt>
      <trkpt lat="46.07064" lon="6.30054">
        <ele>591.83</ele>
        <time>2020-04-25T13:18:29Z</time>
      </trkpt>
      <trkpt lat="46.07078" lon="6.30057">
        <ele>591.83</ele>
        <time>2020-04-25T13:18:30Z</time>
      </trkpt>
      <trkpt lat="46.07079" lon="6.30058">
        <ele>591.35</ele>
        <time>2020-04-25T13:18:31Z</time>
      </trkpt>
      <trkpt lat="46.07088" lon="6.30058">
        <ele>591.35</ele>
        <time>2020-04-25T13:18:32Z</time>
      </trkpt>
      <trkpt lat="46.07103" lon="6.30036">
        <ele>591.83</ele>
        <time>2020-04-25T13:18:34Z</time>
      </trkpt>
      <trkpt lat="46.07115" lon="6.30026">
        <ele>591.83</ele>
        <time>2020-04-25T13:18:35Z</time>
      </trkpt>
      <trkpt lat="46.07209" lon="6.29948">
        <ele>591.35</ele>
        <time>2020-04-25T13:18:43Z</time>
      </trkpt>
      <trkpt lat="46.07306" lon="6.29871">
        <ele>594.23</ele>
        <time>2020-04-25T13:18:51Z</time>
      </trkpt>
      <trkpt lat="46.0735" lon="6.29837">
        <ele>597.12</ele>
        <time>2020-04-25T13:18:57Z</time>
      </trkpt>
      <trkpt lat="46.07429" lon="6.29783">
        <ele>594.23</ele>
        <time>2020-04-25T13:19:04Z</time>
      </trkpt>
      <trkpt lat="46.07487" lon="6.29748">
        <ele>593.75</ele>
        <time>2020-04-25T13:19:08Z</time>
      </trkpt>
      <trkpt lat="46.07501" lon="6.29741">
        <ele>593.27</ele>
        <time>2020-04-25T13:19:09Z</time>
      </trkpt>
      <trkpt lat="46.07515" lon="6.29736">
        <ele>592.79</ele>
        <time>2020-04-25T13:19:10Z</time>
      </trkpt>
      <trkpt lat="46.07542" lon="6.29737">
        <ele>593.27</ele>
        <time>2020-04-25T13:19:12Z</time>
      </trkpt>
      <trkpt lat="46.07555" lon="6.29737">
        <ele>592.79</ele>
        <time>2020-04-25T13:19:13Z</time>
      </trkpt>
      <trkpt lat="46.07568" lon="6.29738">
        <ele>592.79</ele>
        <time>2020-04-25T13:19:14Z</time>
      </trkpt>
      <trkpt lat="46.07591" lon="6.29748">
        <ele>593.27</ele>
        <time>2020-04-25T13:19:16Z</time>
      </trkpt>
      <trkpt lat="46.0761" lon="6.29757">
        <ele>593.27</ele>
        <time>2020-04-25T13:19:18Z</time>
      </trkpt>
      <trkpt lat="46.07617" lon="6.29759">
        <ele>593.27</ele>
        <time>2020-04-25T13:19:19Z</time>
      </trkpt>
      <trkpt lat="46.07625" lon="6.29761">
        <ele>593.27</ele>
        <time>2020-04-25T13:19:20Z</time>
      </trkpt>
      <trkpt lat="46.07629" lon="6.29761">
        <ele>592.79</ele>
        <time>2020-04-25T13:19:21Z</time>
      </trkpt>
      <trkpt lat="46.07638" lon="6.29705">
        <ele>593.27</ele>
        <time>2020-04-25T13:19:23Z</time>
      </trkpt>
      <trkpt lat="46.07644" lon="6.29699">
        <ele>593.27</ele>
        <time>2020-04-25T13:19:24Z</time>
      </trkpt>
      <trkpt lat="46.07653" lon="6.2969">
        <ele>593.27</ele>
        <time>2020-04-25T13:19:25Z</time>
      </trkpt>
      <trkpt lat="46.07653" lon="6.2969">
        <ele>593.27</ele>
        <time>2020-04-25T13:19:26Z</time>
      </trkpt>
      <trkpt lat="46.07707" lon="6.29689">
        <ele>591.35</ele>
        <time>2020-04-25T13:19:30Z</time>
      </trkpt>
      <trkpt lat="46.07721" lon="6.29689">
        <ele>590.87</ele>
        <time>2020-04-25T13:19:34Z</time>
      </trkpt>
      <trkpt lat="46.07729" lon="6.29693">
        <ele>591.35</ele>
        <time>2020-04-25T13:19:39Z</time>
      </trkpt>
      <trkpt lat="46.07731" lon="6.29696">
        <ele>591.35</ele>
        <time>2020-04-25T13:19:41Z</time>
      </trkpt>
      <trkpt lat="46.0776" lon="6.29775">
        <ele>589.91</ele>
        <time>2020-04-25T13:19:46Z</time>
      </trkpt>
      <trkpt lat="46.07797" lon="6.29967">
        <ele>577.89</ele>
        <time>2020-04-25T13:19:52Z</time>
      </trkpt>
      <trkpt lat="46.07797" lon="6.30025">
        <ele>574.04</ele>
        <time>2020-04-25T13:19:54Z</time>
      </trkpt>
      <trkpt lat="46.07794" lon="6.30054">
        <ele>572.12</ele>
        <time>2020-04-25T13:19:55Z</time>
      </trkpt>
      <trkpt lat="46.07743" lon="6.30214">
        <ele>562.03</ele>
        <time>2020-04-25T13:20:01Z</time>
      </trkpt>
      <trkpt lat="46.07662" lon="6.30356">
        <ele>551.93</ele>
        <time>2020-04-25T13:20:08Z</time>
      </trkpt>
      <trkpt lat="46.07635" lon="6.30404">
        <ele>548.57</ele>
        <time>2020-04-25T13:20:12Z</time>
      </trkpt>
      <trkpt lat="46.07629" lon="6.30413">
        <ele>547.61</ele>
        <time>2020-04-25T13:20:13Z</time>
      </trkpt>
      <trkpt lat="46.0762" lon="6.30419">
        <ele>547.13</ele>
        <time>2020-04-25T13:20:14Z</time>
      </trkpt>
      <trkpt lat="46.07613" lon="6.30419">
        <ele>546.17</ele>
        <time>2020-04-25T13:20:15Z</time>
      </trkpt>
      <trkpt lat="46.07605" lon="6.3042">
        <ele>545.69</ele>
        <time>2020-04-25T13:20:16Z</time>
      </trkpt>
      <trkpt lat="46.07601" lon="6.30428">
        <ele>544.72</ele>
        <time>2020-04-25T13:20:17Z</time>
      </trkpt>
      <trkpt lat="46.07602" lon="6.30442">
        <ele>544.24</ele>
        <time>2020-04-25T13:20:18Z</time>
      </trkpt>
      <trkpt lat="46.07602" lon="6.30457">
        <ele>544.24</ele>
        <time>2020-04-25T13:20:19Z</time>
      </trkpt>
      <trkpt lat="46.07596" lon="6.30468">
        <ele>544.24</ele>
        <time>2020-04-25T13:20:20Z</time>
      </trkpt>
      <trkpt lat="46.07589" lon="6.30483">
        <ele>543.76</ele>
        <time>2020-04-25T13:20:21Z</time>
      </trkpt>
      <trkpt lat="46.07581" lon="6.305">
        <ele>543.28</ele>
        <time>2020-04-25T13:20:22Z</time>
      </trkpt>
      <trkpt lat="46.07519" lon="6.30661">
        <ele>539.44</ele>
        <time>2020-04-25T13:20:29Z</time>
      </trkpt>
      <trkpt lat="46.07481" lon="6.30869">
        <ele>533.67</ele>
        <time>2020-04-25T13:20:37Z</time>
      </trkpt>
      <trkpt lat="46.07463" lon="6.31146">
        <ele>523.58</ele>
        <time>2020-04-25T13:20:47Z</time>
      </trkpt>
      <trkpt lat="46.07428" lon="6.31295">
        <ele>516.85</ele>
        <time>2020-04-25T13:20:54Z</time>
      </trkpt>
      <trkpt lat="46.07422" lon="6.3131">
        <ele>516.37</ele>
        <time>2020-04-25T13:20:55Z</time>
      </trkpt>
      <trkpt lat="46.07416" lon="6.31324">
        <ele>515.88</ele>
        <time>2020-04-25T13:20:56Z</time>
      </trkpt>
      <trkpt lat="46.074" lon="6.31344">
        <ele>515.88</ele>
        <time>2020-04-25T13:20:58Z</time>
      </trkpt>
      <trkpt lat="46.07395" lon="6.31359">
        <ele>515.4</ele>
        <time>2020-04-25T13:20:59Z</time>
      </trkpt>
      <trkpt lat="46.07396" lon="6.31376">
        <ele>514.92</ele>
        <time>2020-04-25T13:21:00Z</time>
      </trkpt>
      <trkpt lat="46.07396" lon="6.31405">
        <ele>514.44</ele>
        <time>2020-04-25T13:21:02Z</time>
      </trkpt>
      <trkpt lat="46.07391" lon="6.3142">
        <ele>513.96</ele>
        <time>2020-04-25T13:21:03Z</time>
      </trkpt>
      <trkpt lat="46.07385" lon="6.31437">
        <ele>513.48</ele>
        <time>2020-04-25T13:21:04Z</time>
      </trkpt>
      <trkpt lat="46.07376" lon="6.31457">
        <ele>513</ele>
        <time>2020-04-25T13:21:05Z</time>
      </trkpt>
      <trkpt lat="46.07362" lon="6.31472">
        <ele>513</ele>
        <time>2020-04-25T13:21:06Z</time>
      </trkpt>
      <trkpt lat="46.07249" lon="6.31623">
        <ele>510.6</ele>
        <time>2020-04-25T13:21:15Z</time>
      </trkpt>
      <trkpt lat="46.07136" lon="6.31795">
        <ele>508.19</ele>
        <time>2020-04-25T13:21:24Z</time>
      </trkpt>
      <trkpt lat="46.07062" lon="6.31965">
        <ele>506.75</ele>
        <time>2020-04-25T13:21:31Z</time>
      </trkpt>
      <trkpt lat="46.07026" lon="6.3213">
        <ele>505.31</ele>
        <time>2020-04-25T13:21:38Z</time>
      </trkpt>
      <trkpt lat="46.07026" lon="6.32154">
        <ele>504.83</ele>
        <time>2020-04-25T13:21:39Z</time>
      </trkpt>
      <trkpt lat="46.07033" lon="6.32242">
        <ele>503.87</ele>
        <time>2020-04-25T13:21:43Z</time>
      </trkpt>
      <trkpt lat="46.07086" lon="6.32458">
        <ele>497.14</ele>
        <time>2020-04-25T13:21:53Z</time>
      </trkpt>
      <trkpt lat="46.0711" lon="6.32674">
        <ele>490.89</ele>
        <time>2020-04-25T13:22:03Z</time>
      </trkpt>
      <trkpt lat="46.07113" lon="6.3272">
        <ele>489.45</ele>
        <time>2020-04-25T13:22:06Z</time>
      </trkpt>
      <trkpt lat="46.07114" lon="6.32732">
        <ele>488.97</ele>
        <time>2020-04-25T13:22:07Z</time>
      </trkpt>
      <trkpt lat="46.07115" lon="6.32742">
        <ele>488.49</ele>
        <time>2020-04-25T13:22:08Z</time>
      </trkpt>
      <trkpt lat="46.07108" lon="6.32762">
        <ele>487.05</ele>
        <time>2020-04-25T13:22:10Z</time>
      </trkpt>
      <trkpt lat="46.07111" lon="6.32771">
        <ele>486.56</ele>
        <time>2020-04-25T13:22:11Z</time>
      </trkpt>
      <trkpt lat="46.07115" lon="6.3278">
        <ele>486.56</ele>
        <time>2020-04-25T13:22:12Z</time>
      </trkpt>
      <trkpt lat="46.07121" lon="6.32782">
        <ele>486.08</ele>
        <time>2020-04-25T13:22:13Z</time>
      </trkpt>
      <trkpt lat="46.07129" lon="6.3278">
        <ele>486.08</ele>
        <time>2020-04-25T13:22:14Z</time>
      </trkpt>
      <trkpt lat="46.07135" lon="6.32776">
        <ele>486.08</ele>
        <time>2020-04-25T13:22:15Z</time>
      </trkpt>
      <trkpt lat="46.0714" lon="6.3276">
        <ele>486.08</ele>
        <time>2020-04-25T13:22:16Z</time>
      </trkpt>
      <trkpt lat="46.07155" lon="6.32749">
        <ele>485.6</ele>
        <time>2020-04-25T13:22:18Z</time>
      </trkpt>
      <trkpt lat="46.07164" lon="6.32741">
        <ele>485.12</ele>
        <time>2020-04-25T13:22:19Z</time>
      </trkpt>
      <trkpt lat="46.07172" lon="6.32732">
        <ele>484.64</ele>
        <time>2020-04-25T13:22:20Z</time>
      </trkpt>
      <trkpt lat="46.07218" lon="6.32662">
        <ele>481.28</ele>
        <time>2020-04-25T13:22:27Z</time>
      </trkpt>
      <trkpt lat="46.07222" lon="6.32655">
        <ele>480.8</ele>
        <time>2020-04-25T13:22:28Z</time>
      </trkpt>
      <trkpt lat="46.07226" lon="6.32649">
        <ele>480.8</ele>
        <time>2020-04-25T13:22:29Z</time>
      </trkpt>
      <trkpt lat="46.07235" lon="6.32646">
        <ele>480.32</ele>
        <time>2020-04-25T13:22:30Z</time>
      </trkpt>
      <trkpt lat="46.07234" lon="6.32638">
        <ele>479.84</ele>
        <time>2020-04-25T13:22:31Z</time>
      </trkpt>
      <trkpt lat="46.07224" lon="6.32634">
        <ele>479.84</ele>
        <time>2020-04-25T13:22:32Z</time>
      </trkpt>
      <trkpt lat="46.07223" lon="6.32632">
        <ele>479.35</ele>
        <time>2020-04-25T13:22:33Z</time>
      </trkpt>
      <trkpt lat="46.0722" lon="6.32628">
        <ele>479.35</ele>
        <time>2020-04-25T13:22:34Z</time>
      </trkpt>
      <trkpt lat="46.07219" lon="6.32626">
        <ele>479.35</ele>
        <time>2020-04-25T13:22:35Z</time>
      </trkpt>
      <trkpt lat="46.07218" lon="6.32624">
        <ele>479.35</ele>
        <time>2020-04-25T13:22:36Z</time>
      </trkpt>
      <trkpt lat="46.07217" lon="6.32623">
        <ele>478.87</ele>
        <time>2020-04-25T13:22:37Z</time>
      </trkpt>
      <trkpt lat="46.07216" lon="6.32621">
        <ele>478.87</ele>
        <time>2020-04-25T13:22:38Z</time>
      </trkpt>
      <trkpt lat="46.07214" lon="6.32619">
        <ele>478.87</ele>
        <time>2020-04-25T13:22:39Z</time>
      </trkpt>
      <trkpt lat="46.07211" lon="6.32614">
        <ele>479.35</ele>
        <time>2020-04-25T13:22:40Z</time>
      </trkpt>
      <trkpt lat="46.07205" lon="6.32603">
        <ele>480.32</ele>
        <time>2020-04-25T13:22:41Z</time>
      </trkpt>
      <trkpt lat="46.07199" lon="6.3259">
        <ele>481.28</ele>
        <time>2020-04-25T13:22:42Z</time>
      </trkpt>
      <trkpt lat="46.07195" lon="6.32576">
        <ele>482.24</ele>
        <time>2020-04-25T13:22:43Z</time>
      </trkpt>
      <trkpt lat="46.07193" lon="6.32559">
        <ele>482.72</ele>
        <time>2020-04-25T13:22:44Z</time>
      </trkpt>
      <trkpt lat="46.07192" lon="6.32543">
        <ele>483.2</ele>
        <time>2020-04-25T13:22:45Z</time>
      </trkpt>
      <trkpt lat="46.0719" lon="6.3253">
        <ele>483.68</ele>
        <time>2020-04-25T13:22:46Z</time>
      </trkpt>
      <trkpt lat="46.07188" lon="6.32519">
        <ele>484.16</ele>
        <time>2020-04-25T13:22:47Z</time>
      </trkpt>
      <trkpt lat="46.07186" lon="6.32511">
        <ele>485.12</ele>
        <time>2020-04-25T13:22:48Z</time>
      </trkpt>
      <trkpt lat="46.07185" lon="6.32507">
        <ele>485.6</ele>
        <time>2020-04-25T13:22:49Z</time>
      </trkpt>
      <trkpt lat="46.07174" lon="6.32509">
        <ele>486.08</ele>
        <time>2020-04-25T13:22:50Z</time>
      </trkpt>
      <trkpt lat="46.07171" lon="6.32516">
        <ele>487.05</ele>
        <time>2020-04-25T13:22:51Z</time>
      </trkpt>
      <trkpt lat="46.07168" lon="6.32525">
        <ele>487.53</ele>
        <time>2020-04-25T13:22:52Z</time>
      </trkpt>
      <trkpt lat="46.07164" lon="6.32535">
        <ele>488.49</ele>
        <time>2020-04-25T13:22:53Z</time>
      </trkpt>
      <trkpt lat="46.07158" lon="6.32548">
        <ele>489.93</ele>
        <time>2020-04-25T13:22:55Z</time>
      </trkpt>
      <trkpt lat="46.07157" lon="6.32551">
        <ele>490.41</ele>
        <time>2020-04-25T13:22:56Z</time>
      </trkpt>
      <trkpt lat="46.07149" lon="6.32557">
        <ele>490.41</ele>
        <time>2020-04-25T13:22:57Z</time>
      </trkpt>
      <trkpt lat="46.07149" lon="6.32557">
        <ele>490.89</ele>
        <time>2020-04-25T13:23:10Z</time>
      </trkpt>
      <trkpt lat="46.07154" lon="6.32548">
        <ele>497.14</ele>
        <time>2020-04-25T13:39:22Z</time>
      </trkpt>
      <trkpt lat="46.0715" lon="6.32559">
        <ele>506.75</ele>
        <time>2020-04-25T13:39:35Z</time>
      </trkpt>
      <trkpt lat="46.0716" lon="6.32568">
        <ele>506.75</ele>
        <time>2020-04-25T13:39:36Z</time>
      </trkpt>
      <trkpt lat="46.07158" lon="6.32571">
        <ele>505.31</ele>
        <time>2020-04-25T13:39:37Z</time>
      </trkpt>
      <trkpt lat="46.07153" lon="6.32582">
        <ele>505.31</ele>
        <time>2020-04-25T13:39:38Z</time>
      </trkpt>
      <trkpt lat="46.07148" lon="6.32593">
        <ele>504.83</ele>
        <time>2020-04-25T13:39:39Z</time>
      </trkpt>
      <trkpt lat="46.07144" lon="6.32602">
        <ele>503.87</ele>
        <time>2020-04-25T13:39:40Z</time>
      </trkpt>
      <trkpt lat="46.07139" lon="6.32611">
        <ele>501.95</ele>
        <time>2020-04-25T13:39:41Z</time>
      </trkpt>
      <trkpt lat="46.07138" lon="6.32613">
        <ele>501.46</ele>
        <time>2020-04-25T13:39:42Z</time>
      </trkpt>
      <trkpt lat="46.07135" lon="6.32627">
        <ele>500.5</ele>
        <time>2020-04-25T13:39:43Z</time>
      </trkpt>
      <trkpt lat="46.07133" lon="6.32636">
        <ele>498.58</ele>
        <time>2020-04-25T13:39:44Z</time>
      </trkpt>
      <trkpt lat="46.0713" lon="6.32649">
        <ele>497.62</ele>
        <time>2020-04-25T13:39:45Z</time>
      </trkpt>
      <trkpt lat="46.07131" lon="6.32663">
        <ele>496.18</ele>
        <time>2020-04-25T13:39:46Z</time>
      </trkpt>
      <trkpt lat="46.07132" lon="6.32678">
        <ele>494.74</ele>
        <time>2020-04-25T13:39:47Z</time>
      </trkpt>
      <trkpt lat="46.07134" lon="6.3269">
        <ele>494.26</ele>
        <time>2020-04-25T13:39:48Z</time>
      </trkpt>
      <trkpt lat="46.07139" lon="6.32697">
        <ele>494.26</ele>
        <time>2020-04-25T13:39:49Z</time>
      </trkpt>
      <trkpt lat="46.07148" lon="6.32706">
        <ele>493.29</ele>
        <time>2020-04-25T13:39:50Z</time>
      </trkpt>
      <trkpt lat="46.07155" lon="6.32714">
        <ele>492.33</ele>
        <time>2020-04-25T13:39:51Z</time>
      </trkpt>
      <trkpt lat="46.07165" lon="6.32705">
        <ele>491.37</ele>
        <time>2020-04-25T13:39:52Z</time>
      </trkpt>
      <trkpt lat="46.07172" lon="6.32698">
        <ele>489.93</ele>
        <time>2020-04-25T13:39:53Z</time>
      </trkpt>
      <trkpt lat="46.0718" lon="6.32691">
        <ele>489.45</ele>
        <time>2020-04-25T13:39:54Z</time>
      </trkpt>
      <trkpt lat="46.07187" lon="6.32678">
        <ele>488.97</ele>
        <time>2020-04-25T13:39:55Z</time>
      </trkpt>
      <trkpt lat="46.07194" lon="6.32666">
        <ele>488.49</ele>
        <time>2020-04-25T13:39:56Z</time>
      </trkpt>
      <trkpt lat="46.072" lon="6.32655">
        <ele>488.01</ele>
        <time>2020-04-25T13:39:57Z</time>
      </trkpt>
      <trkpt lat="46.07207" lon="6.32643">
        <ele>487.05</ele>
        <time>2020-04-25T13:39:58Z</time>
      </trkpt>
      <trkpt lat="46.07207" lon="6.32635">
        <ele>487.05</ele>
        <time>2020-04-25T13:39:59Z</time>
      </trkpt>
      <trkpt lat="46.07208" lon="6.32626">
        <ele>487.53</ele>
        <time>2020-04-25T13:40:00Z</time>
      </trkpt>
      <trkpt lat="46.07208" lon="6.3262">
        <ele>487.05</ele>
        <time>2020-04-25T13:40:01Z</time>
      </trkpt>
      <trkpt lat="46.07213" lon="6.32617">
        <ele>486.56</ele>
        <time>2020-04-25T13:40:02Z</time>
      </trkpt>
      <trkpt lat="46.07215" lon="6.32621">
        <ele>486.08</ele>
        <time>2020-04-25T13:40:03Z</time>
      </trkpt>
      <trkpt lat="46.07218" lon="6.32625">
        <ele>486.08</ele>
        <time>2020-04-25T13:40:04Z</time>
      </trkpt>
      <trkpt lat="46.07224" lon="6.32634">
        <ele>486.08</ele>
        <time>2020-04-25T13:40:05Z</time>
      </trkpt>
      <trkpt lat="46.07225" lon="6.3264">
        <ele>485.6</ele>
        <time>2020-04-25T13:40:06Z</time>
      </trkpt>
      <trkpt lat="46.07221" lon="6.32656">
        <ele>485.12</ele>
        <time>2020-04-25T13:40:07Z</time>
      </trkpt>
      <trkpt lat="46.07215" lon="6.32665">
        <ele>485.12</ele>
        <time>2020-04-25T13:40:08Z</time>
      </trkpt>
      <trkpt lat="46.07207" lon="6.32677">
        <ele>485.12</ele>
        <time>2020-04-25T13:40:09Z</time>
      </trkpt>
      <trkpt lat="46.07197" lon="6.32692">
        <ele>485.12</ele>
        <time>2020-04-25T13:40:10Z</time>
      </trkpt>
      <trkpt lat="46.07157" lon="6.32748">
        <ele>486.56</ele>
        <time>2020-04-25T13:40:15Z</time>
      </trkpt>
      <trkpt lat="46.07147" lon="6.32757">
        <ele>487.05</ele>
        <time>2020-04-25T13:40:16Z</time>
      </trkpt>
      <trkpt lat="46.07136" lon="6.3275">
        <ele>487.05</ele>
        <time>2020-04-25T13:40:17Z</time>
      </trkpt>
      <trkpt lat="46.07136" lon="6.3275">
        <ele>487.53</ele>
        <time>2020-04-25T13:40:18Z</time>
      </trkpt>
      <trkpt lat="46.0713" lon="6.32745">
        <ele>488.01</ele>
        <time>2020-04-25T13:40:19Z</time>
      </trkpt>
      <trkpt lat="46.07123" lon="6.32742">
        <ele>488.97</ele>
        <time>2020-04-25T13:40:20Z</time>
      </trkpt>
      <trkpt lat="46.07115" lon="6.32744">
        <ele>489.45</ele>
        <time>2020-04-25T13:40:21Z</time>
      </trkpt>
      <trkpt lat="46.07108" lon="6.32755">
        <ele>489.93</ele>
        <time>2020-04-25T13:40:22Z</time>
      </trkpt>
      <trkpt lat="46.07108" lon="6.32765">
        <ele>489.93</ele>
        <time>2020-04-25T13:40:23Z</time>
      </trkpt>
      <trkpt lat="46.07113" lon="6.32777">
        <ele>490.41</ele>
        <time>2020-04-25T13:40:24Z</time>
      </trkpt>
      <trkpt lat="46.07115" lon="6.3278">
        <ele>490.41</ele>
        <time>2020-04-25T13:40:25Z</time>
      </trkpt>
      <trkpt lat="46.07123" lon="6.32803">
        <ele>490.41</ele>
        <time>2020-04-25T13:40:26Z</time>
      </trkpt>
      <trkpt lat="46.07124" lon="6.32823">
        <ele>490.41</ele>
        <time>2020-04-25T13:40:27Z</time>
      </trkpt>
      <trkpt lat="46.07126" lon="6.32846">
        <ele>489.93</ele>
        <time>2020-04-25T13:40:28Z</time>
      </trkpt>
      <trkpt lat="46.07144" lon="6.33082">
        <ele>480.32</ele>
        <time>2020-04-25T13:40:37Z</time>
      </trkpt>
      <trkpt lat="46.07143" lon="6.33108">
        <ele>478.87</ele>
        <time>2020-04-25T13:40:38Z</time>
      </trkpt>
      <trkpt lat="46.07142" lon="6.33134">
        <ele>477.43</ele>
        <time>2020-04-25T13:40:39Z</time>
      </trkpt>
      <trkpt lat="46.07138" lon="6.33159">
        <ele>475.99</ele>
        <time>2020-04-25T13:40:40Z</time>
      </trkpt>
      <trkpt lat="46.07134" lon="6.33184">
        <ele>474.55</ele>
        <time>2020-04-25T13:40:41Z</time>
      </trkpt>
      <trkpt lat="46.07128" lon="6.33209">
        <ele>473.11</ele>
        <time>2020-04-25T13:40:42Z</time>
      </trkpt>
      <trkpt lat="46.07092" lon="6.33324">
        <ele>468.3</ele>
        <time>2020-04-25T13:40:47Z</time>
      </trkpt>
      <trkpt lat="46.07082" lon="6.33343">
        <ele>468.3</ele>
        <time>2020-04-25T13:40:48Z</time>
      </trkpt>
      <trkpt lat="46.07072" lon="6.33362">
        <ele>467.82</ele>
        <time>2020-04-25T13:40:49Z</time>
      </trkpt>
      <trkpt lat="46.0706" lon="6.3338">
        <ele>467.82</ele>
        <time>2020-04-25T13:40:50Z</time>
      </trkpt>
      <trkpt lat="46.07048" lon="6.33398">
        <ele>467.34</ele>
        <time>2020-04-25T13:40:51Z</time>
      </trkpt>
      <trkpt lat="46.06981" lon="6.33499">
        <ele>466.86</ele>
        <time>2020-04-25T13:40:58Z</time>
      </trkpt>
      <trkpt lat="46.06971" lon="6.33515">
        <ele>465.9</ele>
        <time>2020-04-25T13:41:00Z</time>
      </trkpt>
      <trkpt lat="46.06962" lon="6.33519">
        <ele>465.9</ele>
        <time>2020-04-25T13:41:01Z</time>
      </trkpt>
      <trkpt lat="46.06956" lon="6.33516">
        <ele>465.9</ele>
        <time>2020-04-25T13:41:02Z</time>
      </trkpt>
      <trkpt lat="46.0695" lon="6.33513">
        <ele>465.42</ele>
        <time>2020-04-25T13:41:03Z</time>
      </trkpt>
      <trkpt lat="46.06942" lon="6.33508">
        <ele>464.93</ele>
        <time>2020-04-25T13:41:04Z</time>
      </trkpt>
      <trkpt lat="46.06938" lon="6.33499">
        <ele>464.93</ele>
        <time>2020-04-25T13:41:05Z</time>
      </trkpt>
      <trkpt lat="46.06932" lon="6.33492">
        <ele>465.42</ele>
        <time>2020-04-25T13:41:06Z</time>
      </trkpt>
      <trkpt lat="46.06924" lon="6.33487">
        <ele>465.42</ele>
        <time>2020-04-25T13:41:07Z</time>
      </trkpt>
      <trkpt lat="46.06915" lon="6.33484">
        <ele>465.42</ele>
        <time>2020-04-25T13:41:08Z</time>
      </trkpt>
      <trkpt lat="46.06905" lon="6.33484">
        <ele>465.42</ele>
        <time>2020-04-25T13:41:09Z</time>
      </trkpt>
      <trkpt lat="46.06893" lon="6.33483">
        <ele>465.9</ele>
        <time>2020-04-25T13:41:10Z</time>
      </trkpt>
      <trkpt lat="46.06881" lon="6.33482">
        <ele>465.9</ele>
        <time>2020-04-25T13:41:11Z</time>
      </trkpt>
      <trkpt lat="46.06838" lon="6.33485">
        <ele>466.86</ele>
        <time>2020-04-25T13:41:15Z</time>
      </trkpt>
      <trkpt lat="46.0683" lon="6.33486">
        <ele>466.86</ele>
        <time>2020-04-25T13:41:16Z</time>
      </trkpt>
      <trkpt lat="46.06823" lon="6.33486">
        <ele>466.38</ele>
        <time>2020-04-25T13:41:17Z</time>
      </trkpt>
      <trkpt lat="46.06808" lon="6.33494">
        <ele>466.38</ele>
        <time>2020-04-25T13:41:19Z</time>
      </trkpt>
      <trkpt lat="46.06801" lon="6.3349">
        <ele>466.38</ele>
        <time>2020-04-25T13:41:20Z</time>
      </trkpt>
      <trkpt lat="46.06793" lon="6.33486">
        <ele>466.38</ele>
        <time>2020-04-25T13:41:21Z</time>
      </trkpt>
      <trkpt lat="46.06785" lon="6.33481">
        <ele>466.38</ele>
        <time>2020-04-25T13:41:22Z</time>
      </trkpt>
      <trkpt lat="46.06776" lon="6.33475">
        <ele>466.38</ele>
        <time>2020-04-25T13:41:23Z</time>
      </trkpt>
      <trkpt lat="46.06766" lon="6.33467">
        <ele>466.38</ele>
        <time>2020-04-25T13:41:24Z</time>
      </trkpt>
      <trkpt lat="46.0673" lon="6.33436">
        <ele>468.78</ele>
        <time>2020-04-25T13:41:28Z</time>
      </trkpt>
      <trkpt lat="46.06721" lon="6.33429">
        <ele>469.26</ele>
        <time>2020-04-25T13:41:29Z</time>
      </trkpt>
      <trkpt lat="46.06711" lon="6.33425">
        <ele>469.74</ele>
        <time>2020-04-25T13:41:30Z</time>
      </trkpt>
      <trkpt lat="46.06701" lon="6.3342">
        <ele>470.22</ele>
        <time>2020-04-25T13:41:31Z</time>
      </trkpt>
      <trkpt lat="46.0669" lon="6.33416">
        <ele>470.7</ele>
        <time>2020-04-25T13:41:32Z</time>
      </trkpt>
      <trkpt lat="46.0668" lon="6.33411">
        <ele>471.18</ele>
        <time>2020-04-25T13:41:33Z</time>
      </trkpt>
      <trkpt lat="46.06669" lon="6.33407">
        <ele>471.66</ele>
        <time>2020-04-25T13:41:34Z</time>
      </trkpt>
      <trkpt lat="46.06659" lon="6.33403">
        <ele>472.14</ele>
        <time>2020-04-25T13:41:35Z</time>
      </trkpt>
      <trkpt lat="46.06652" lon="6.33395">
        <ele>473.11</ele>
        <time>2020-04-25T13:41:36Z</time>
      </trkpt>
      <trkpt lat="46.0665" lon="6.33383">
        <ele>473.59</ele>
        <time>2020-04-25T13:41:37Z</time>
      </trkpt>
      <trkpt lat="46.06647" lon="6.33371">
        <ele>474.55</ele>
        <time>2020-04-25T13:41:38Z</time>
      </trkpt>
      <trkpt lat="46.06643" lon="6.3336">
        <ele>475.51</ele>
        <time>2020-04-25T13:41:39Z</time>
      </trkpt>
      <trkpt lat="46.06639" lon="6.3335">
        <ele>476.47</ele>
        <time>2020-04-25T13:41:40Z</time>
      </trkpt>
      <trkpt lat="46.06632" lon="6.33339">
        <ele>476.95</ele>
        <time>2020-04-25T13:41:41Z</time>
      </trkpt>
      <trkpt lat="46.06622" lon="6.33327">
        <ele>477.91</ele>
        <time>2020-04-25T13:41:42Z</time>
      </trkpt>
      <trkpt lat="46.0661" lon="6.33317">
        <ele>478.87</ele>
        <time>2020-04-25T13:41:43Z</time>
      </trkpt>
      <trkpt lat="46.06596" lon="6.33308">
        <ele>479.84</ele>
        <time>2020-04-25T13:41:44Z</time>
      </trkpt>
      <trkpt lat="46.06583" lon="6.333">
        <ele>480.8</ele>
        <time>2020-04-25T13:41:45Z</time>
      </trkpt>
      <trkpt lat="46.06572" lon="6.33293">
        <ele>481.28</ele>
        <time>2020-04-25T13:41:46Z</time>
      </trkpt>
      <trkpt lat="46.06559" lon="6.33285">
        <ele>481.76</ele>
        <time>2020-04-25T13:41:47Z</time>
      </trkpt>
      <trkpt lat="46.06556" lon="6.33276">
        <ele>482.24</ele>
        <time>2020-04-25T13:41:48Z</time>
      </trkpt>
      <trkpt lat="46.06553" lon="6.33261">
        <ele>482.72</ele>
        <time>2020-04-25T13:41:49Z</time>
      </trkpt>
      <trkpt lat="46.06557" lon="6.33248">
        <ele>483.2</ele>
        <time>2020-04-25T13:41:50Z</time>
      </trkpt>
      <trkpt lat="46.0656" lon="6.33233">
        <ele>483.68</ele>
        <time>2020-04-25T13:41:51Z</time>
      </trkpt>
      <trkpt lat="46.0656" lon="6.33217">
        <ele>484.16</ele>
        <time>2020-04-25T13:41:52Z</time>
      </trkpt>
      <trkpt lat="46.06559" lon="6.33201">
        <ele>483.68</ele>
        <time>2020-04-25T13:41:53Z</time>
      </trkpt>
      <trkpt lat="46.06551" lon="6.33181">
        <ele>483.68</ele>
        <time>2020-04-25T13:41:54Z</time>
      </trkpt>
      <trkpt lat="46.06542" lon="6.33162">
        <ele>482.72</ele>
        <time>2020-04-25T13:41:55Z</time>
      </trkpt>
      <trkpt lat="46.06531" lon="6.33141">
        <ele>482.24</ele>
        <time>2020-04-25T13:41:56Z</time>
      </trkpt>
      <trkpt lat="46.06518" lon="6.33117">
        <ele>481.76</ele>
        <time>2020-04-25T13:41:57Z</time>
      </trkpt>
      <trkpt lat="46.06464" lon="6.33018">
        <ele>481.28</ele>
        <time>2020-04-25T13:42:02Z</time>
      </trkpt>
      <trkpt lat="46.06456" lon="6.33001">
        <ele>481.76</ele>
        <time>2020-04-25T13:42:03Z</time>
      </trkpt>
      <trkpt lat="46.06444" lon="6.32992">
        <ele>481.76</ele>
        <time>2020-04-25T13:42:04Z</time>
      </trkpt>
      <trkpt lat="46.06431" lon="6.32985">
        <ele>482.72</ele>
        <time>2020-04-25T13:42:05Z</time>
      </trkpt>
      <trkpt lat="46.06422" lon="6.3298">
        <ele>483.2</ele>
        <time>2020-04-25T13:42:06Z</time>
      </trkpt>
      <trkpt lat="46.06406" lon="6.32981">
        <ele>483.2</ele>
        <time>2020-04-25T13:42:07Z</time>
      </trkpt>
      <trkpt lat="46.06392" lon="6.32982">
        <ele>483.68</ele>
        <time>2020-04-25T13:42:08Z</time>
      </trkpt>
      <trkpt lat="46.06378" lon="6.32983">
        <ele>484.16</ele>
        <time>2020-04-25T13:42:09Z</time>
      </trkpt>
      <trkpt lat="46.06365" lon="6.32984">
        <ele>484.64</ele>
        <time>2020-04-25T13:42:10Z</time>
      </trkpt>
      <trkpt lat="46.06354" lon="6.32983">
        <ele>485.12</ele>
        <time>2020-04-25T13:42:11Z</time>
      </trkpt>
      <trkpt lat="46.0634" lon="6.32977">
        <ele>486.56</ele>
        <time>2020-04-25T13:42:13Z</time>
      </trkpt>
      <trkpt lat="46.06336" lon="6.32975">
        <ele>487.05</ele>
        <time>2020-04-25T13:42:14Z</time>
      </trkpt>
      <trkpt lat="46.06332" lon="6.32974">
        <ele>487.53</ele>
        <time>2020-04-25T13:42:15Z</time>
      </trkpt>
      <trkpt lat="46.06329" lon="6.32962">
        <ele>488.49</ele>
        <time>2020-04-25T13:42:16Z</time>
      </trkpt>
      <trkpt lat="46.06331" lon="6.32953">
        <ele>488.97</ele>
        <time>2020-04-25T13:42:17Z</time>
      </trkpt>
      <trkpt lat="46.06331" lon="6.32939">
        <ele>489.93</ele>
        <time>2020-04-25T13:42:18Z</time>
      </trkpt>
      <trkpt lat="46.06329" lon="6.32923">
        <ele>490.41</ele>
        <time>2020-04-25T13:42:19Z</time>
      </trkpt>
      <trkpt lat="46.06328" lon="6.32903">
        <ele>491.37</ele>
        <time>2020-04-25T13:42:20Z</time>
      </trkpt>
      <trkpt lat="46.06326" lon="6.32883">
        <ele>492.81</ele>
        <time>2020-04-25T13:42:21Z</time>
      </trkpt>
      <trkpt lat="46.06325" lon="6.32864">
        <ele>494.26</ele>
        <time>2020-04-25T13:42:22Z</time>
      </trkpt>
      <trkpt lat="46.06326" lon="6.32842">
        <ele>495.7</ele>
        <time>2020-04-25T13:42:23Z</time>
      </trkpt>
      <trkpt lat="46.06327" lon="6.32798">
        <ele>498.1</ele>
        <time>2020-04-25T13:42:25Z</time>
      </trkpt>
      <trkpt lat="46.06325" lon="6.32776">
        <ele>499.54</ele>
        <time>2020-04-25T13:42:26Z</time>
      </trkpt>
      <trkpt lat="46.06324" lon="6.32754">
        <ele>500.5</ele>
        <time>2020-04-25T13:42:27Z</time>
      </trkpt>
      <trkpt lat="46.06283" lon="6.32581">
        <ele>511.08</ele>
        <time>2020-04-25T13:42:35Z</time>
      </trkpt>
      <trkpt lat="46.06269" lon="6.32526">
        <ele>514.92</ele>
        <time>2020-04-25T13:42:38Z</time>
      </trkpt>
      <trkpt lat="46.06261" lon="6.32409">
        <ele>524.54</ele>
        <time>2020-04-25T13:42:46Z</time>
      </trkpt>
      <trkpt lat="46.06261" lon="6.32397">
        <ele>525.5</ele>
        <time>2020-04-25T13:42:47Z</time>
      </trkpt>
      <trkpt lat="46.06261" lon="6.32384">
        <ele>525.98</ele>
        <time>2020-04-25T13:42:48Z</time>
      </trkpt>
      <trkpt lat="46.06266" lon="6.32227">
        <ele>528.38</ele>
        <time>2020-04-25T13:42:58Z</time>
      </trkpt>
      <trkpt lat="46.06266" lon="6.32211">
        <ele>528.38</ele>
        <time>2020-04-25T13:42:59Z</time>
      </trkpt>
      <trkpt lat="46.06264" lon="6.32165">
        <ele>528.86</ele>
        <time>2020-04-25T13:43:02Z</time>
      </trkpt>
      <trkpt lat="46.06247" lon="6.32078">
        <ele>529.82</ele>
        <time>2020-04-25T13:43:08Z</time>
      </trkpt>
      <trkpt lat="46.06243" lon="6.32066">
        <ele>529.82</ele>
        <time>2020-04-25T13:43:09Z</time>
      </trkpt>
      <trkpt lat="46.0621" lon="6.31979">
        <ele>534.15</ele>
        <time>2020-04-25T13:43:19Z</time>
      </trkpt>
      <trkpt lat="46.06174" lon="6.31903">
        <ele>536.07</ele>
        <time>2020-04-25T13:43:29Z</time>
      </trkpt>
      <trkpt lat="46.0614" lon="6.31842">
        <ele>541.84</ele>
        <time>2020-04-25T13:43:33Z</time>
      </trkpt>
      <trkpt lat="46.06131" lon="6.31832">
        <ele>543.76</ele>
        <time>2020-04-25T13:43:34Z</time>
      </trkpt>
      <trkpt lat="46.06124" lon="6.31823">
        <ele>545.2</ele>
        <time>2020-04-25T13:43:35Z</time>
      </trkpt>
      <trkpt lat="46.06116" lon="6.31814">
        <ele>547.13</ele>
        <time>2020-04-25T13:43:36Z</time>
      </trkpt>
      <trkpt lat="46.06109" lon="6.31806">
        <ele>548.57</ele>
        <time>2020-04-25T13:43:37Z</time>
      </trkpt>
      <trkpt lat="46.06098" lon="6.31793">
        <ele>551.93</ele>
        <time>2020-04-25T13:43:39Z</time>
      </trkpt>
      <trkpt lat="46.0609" lon="6.31784">
        <ele>555.3</ele>
        <time>2020-04-25T13:43:41Z</time>
      </trkpt>
      <trkpt lat="46.06088" lon="6.31769">
        <ele>557.22</ele>
        <time>2020-04-25T13:43:42Z</time>
      </trkpt>
      <trkpt lat="46.06088" lon="6.31753">
        <ele>558.18</ele>
        <time>2020-04-25T13:43:43Z</time>
      </trkpt>
      <trkpt lat="46.06065" lon="6.31692">
        <ele>559.14</ele>
        <time>2020-04-25T13:43:46Z</time>
      </trkpt>
      <trkpt lat="46.0604" lon="6.31639">
        <ele>558.66</ele>
        <time>2020-04-25T13:43:49Z</time>
      </trkpt>
      <trkpt lat="46.06037" lon="6.31627">
        <ele>558.18</ele>
        <time>2020-04-25T13:43:50Z</time>
      </trkpt>
      <trkpt lat="46.06037" lon="6.31612">
        <ele>557.7</ele>
        <time>2020-04-25T13:43:51Z</time>
      </trkpt>
      <trkpt lat="46.06042" lon="6.31599">
        <ele>557.22</ele>
        <time>2020-04-25T13:43:52Z</time>
      </trkpt>
      <trkpt lat="46.06047" lon="6.31585">
        <ele>556.74</ele>
        <time>2020-04-25T13:43:53Z</time>
      </trkpt>
      <trkpt lat="46.06056" lon="6.31576">
        <ele>556.26</ele>
        <time>2020-04-25T13:43:54Z</time>
      </trkpt>
      <trkpt lat="46.06065" lon="6.31568">
        <ele>555.78</ele>
        <time>2020-04-25T13:43:55Z</time>
      </trkpt>
      <trkpt lat="46.06076" lon="6.31567">
        <ele>555.78</ele>
        <time>2020-04-25T13:43:56Z</time>
      </trkpt>
      <trkpt lat="46.06087" lon="6.31572">
        <ele>555.3</ele>
        <time>2020-04-25T13:43:57Z</time>
      </trkpt>
      <trkpt lat="46.06098" lon="6.3158">
        <ele>555.3</ele>
        <time>2020-04-25T13:43:58Z</time>
      </trkpt>
      <trkpt lat="46.0611" lon="6.3159">
        <ele>555.3</ele>
        <time>2020-04-25T13:43:59Z</time>
      </trkpt>
      <trkpt lat="46.06183" lon="6.31637">
        <ele>557.22</ele>
        <time>2020-04-25T13:44:05Z</time>
      </trkpt>
      <trkpt lat="46.06192" lon="6.3164">
        <ele>558.18</ele>
        <time>2020-04-25T13:44:06Z</time>
      </trkpt>
      <trkpt lat="46.06204" lon="6.31637">
        <ele>558.18</ele>
        <time>2020-04-25T13:44:07Z</time>
      </trkpt>
      <trkpt lat="46.06216" lon="6.31634">
        <ele>558.66</ele>
        <time>2020-04-25T13:44:08Z</time>
      </trkpt>
      <trkpt lat="46.06227" lon="6.31629">
        <ele>558.66</ele>
        <time>2020-04-25T13:44:09Z</time>
      </trkpt>
      <trkpt lat="46.0625" lon="6.31618">
        <ele>558.18</ele>
        <time>2020-04-25T13:44:11Z</time>
      </trkpt>
      <trkpt lat="46.0626" lon="6.3161">
        <ele>557.7</ele>
        <time>2020-04-25T13:44:12Z</time>
      </trkpt>
      <trkpt lat="46.06269" lon="6.316">
        <ele>557.22</ele>
        <time>2020-04-25T13:44:13Z</time>
      </trkpt>
      <trkpt lat="46.06278" lon="6.31588">
        <ele>556.74</ele>
        <time>2020-04-25T13:44:14Z</time>
      </trkpt>
      <trkpt lat="46.06286" lon="6.31576">
        <ele>556.26</ele>
        <time>2020-04-25T13:44:15Z</time>
      </trkpt>
      <trkpt lat="46.0635" lon="6.31483">
        <ele>553.86</ele>
        <time>2020-04-25T13:44:24Z</time>
      </trkpt>
      <trkpt lat="46.06358" lon="6.31466">
        <ele>553.38</ele>
        <time>2020-04-25T13:44:26Z</time>
      </trkpt>
      <trkpt lat="46.06362" lon="6.31456">
        <ele>552.9</ele>
        <time>2020-04-25T13:44:27Z</time>
      </trkpt>
      <trkpt lat="46.06366" lon="6.31444">
        <ele>552.41</ele>
        <time>2020-04-25T13:44:28Z</time>
      </trkpt>
      <trkpt lat="46.06369" lon="6.31432">
        <ele>551.93</ele>
        <time>2020-04-25T13:44:29Z</time>
      </trkpt>
      <trkpt lat="46.06373" lon="6.3142">
        <ele>551.93</ele>
        <time>2020-04-25T13:44:30Z</time>
      </trkpt>
      <trkpt lat="46.06391" lon="6.3134">
        <ele>551.45</ele>
        <time>2020-04-25T13:44:36Z</time>
      </trkpt>
      <trkpt lat="46.06438" lon="6.31168">
        <ele>551.93</ele>
        <time>2020-04-25T13:44:46Z</time>
      </trkpt>
      <trkpt lat="46.06458" lon="6.31111">
        <ele>553.86</ele>
        <time>2020-04-25T13:44:51Z</time>
      </trkpt>
      <trkpt lat="46.0646" lon="6.31107">
        <ele>553.86</ele>
        <time>2020-04-25T13:44:52Z</time>
      </trkpt>
      <trkpt lat="46.0646" lon="6.31105">
        <ele>553.86</ele>
        <time>2020-04-25T13:44:53Z</time>
      </trkpt>
      <trkpt lat="46.06476" lon="6.31088">
        <ele>555.3</ele>
        <time>2020-04-25T13:44:58Z</time>
      </trkpt>
      <trkpt lat="46.06483" lon="6.31088">
        <ele>555.3</ele>
        <time>2020-04-25T13:44:59Z</time>
      </trkpt>
      <trkpt lat="46.0649" lon="6.31088">
        <ele>555.78</ele>
        <time>2020-04-25T13:45:00Z</time>
      </trkpt>
      <trkpt lat="46.06497" lon="6.31088">
        <ele>556.26</ele>
        <time>2020-04-25T13:45:01Z</time>
      </trkpt>
      <trkpt lat="46.06505" lon="6.31088">
        <ele>556.26</ele>
        <time>2020-04-25T13:45:02Z</time>
      </trkpt>
      <trkpt lat="46.06514" lon="6.31088">
        <ele>556.74</ele>
        <time>2020-04-25T13:45:03Z</time>
      </trkpt>
      <trkpt lat="46.06581" lon="6.31094">
        <ele>554.82</ele>
        <time>2020-04-25T13:45:13Z</time>
      </trkpt>
      <trkpt lat="46.06584" lon="6.31095">
        <ele>554.82</ele>
        <time>2020-04-25T13:45:14Z</time>
      </trkpt>
      <trkpt lat="46.06588" lon="6.31096">
        <ele>554.82</ele>
        <time>2020-04-25T13:45:15Z</time>
      </trkpt>
      <trkpt lat="46.06592" lon="6.31097">
        <ele>554.34</ele>
        <time>2020-04-25T13:45:16Z</time>
      </trkpt>
      <trkpt lat="46.06594" lon="6.31097">
        <ele>554.82</ele>
        <time>2020-04-25T13:45:17Z</time>
      </trkpt>
      <trkpt lat="46.06598" lon="6.31092">
        <ele>555.3</ele>
        <time>2020-04-25T13:45:18Z</time>
      </trkpt>
      <trkpt lat="46.066" lon="6.31084">
        <ele>555.3</ele>
        <time>2020-04-25T13:45:19Z</time>
      </trkpt>
      <trkpt lat="46.06601" lon="6.31073">
        <ele>555.3</ele>
        <time>2020-04-25T13:45:20Z</time>
      </trkpt>
      <trkpt lat="46.06603" lon="6.31061">
        <ele>554.82</ele>
        <time>2020-04-25T13:45:21Z</time>
      </trkpt>
      <trkpt lat="46.06605" lon="6.31037">
        <ele>553.38</ele>
        <time>2020-04-25T13:45:23Z</time>
      </trkpt>
      <trkpt lat="46.06623" lon="6.30948">
        <ele>552.9</ele>
        <time>2020-04-25T13:45:32Z</time>
      </trkpt>
      <trkpt lat="46.06633" lon="6.30912">
        <ele>552.9</ele>
        <time>2020-04-25T13:45:36Z</time>
      </trkpt>
      <trkpt lat="46.06639" lon="6.30906">
        <ele>552.9</ele>
        <time>2020-04-25T13:45:37Z</time>
      </trkpt>
      <trkpt lat="46.06649" lon="6.30911">
        <ele>552.9</ele>
        <time>2020-04-25T13:45:38Z</time>
      </trkpt>
      <trkpt lat="46.0666" lon="6.30909">
        <ele>551.93</ele>
        <time>2020-04-25T13:45:39Z</time>
      </trkpt>
      <trkpt lat="46.06671" lon="6.30906">
        <ele>551.45</ele>
        <time>2020-04-25T13:45:40Z</time>
      </trkpt>
      <trkpt lat="46.0669" lon="6.30901">
        <ele>550.97</ele>
        <time>2020-04-25T13:45:42Z</time>
      </trkpt>
      <trkpt lat="46.06699" lon="6.3089">
        <ele>550.01</ele>
        <time>2020-04-25T13:45:43Z</time>
      </trkpt>
      <trkpt lat="46.06706" lon="6.30879">
        <ele>549.05</ele>
        <time>2020-04-25T13:45:44Z</time>
      </trkpt>
      <trkpt lat="46.06743" lon="6.30821">
        <ele>547.61</ele>
        <time>2020-04-25T13:45:50Z</time>
      </trkpt>
      <trkpt lat="46.06747" lon="6.30816">
        <ele>547.61</ele>
        <time>2020-04-25T13:45:51Z</time>
      </trkpt>
      <trkpt lat="46.06749" lon="6.30812">
        <ele>547.61</ele>
        <time>2020-04-25T13:45:52Z</time>
      </trkpt>
      <trkpt lat="46.06751" lon="6.3081">
        <ele>547.61</ele>
        <time>2020-04-25T13:45:53Z</time>
      </trkpt>
      <trkpt lat="46.06751" lon="6.3081">
        <ele>547.61</ele>
        <time>2020-04-25T13:46:04Z</time>
      </trkpt>
    </trkseg>
  </trk>
</gpx>